Disclaimer

Please do not use the information listed here in-flight or in-navigation, as they are not provided to us by the airports but are provided by volunteers, so they might be outdated.

Search


Regions


Airport information page

Radio informations:
PONTOISE TWR - 121.2 MHz
Automatic Terminal Information Service (ATIS) - 124.125 MHz
PONTOISE APP - 118.8 MHz

Airport informations:
Latitude: 49° 05' 47.93" N
Longitude: 002° 02' 27.00" E
Elevation: 325 feet - 99 meters
Operating hours: Remarks
Operating agency: Civil government, landing fees and diplomatic clearance may be required
Timezone: UTC+1(+2DT) - Last Sunday in March to last Sunday in October
Fuel: Jet A1, without icing nhibitor.

100/130 MIL Spec, low lead, aviation gasoline (BLUE)

Runway information:
05/23 - 5541 x 164 feet< - >1689 x 50 meters
12/30 - 5413 x 164 feet< - >1650 x 50 meters

Recent METARs:
LFPT 151730Z AUTO 15008KT 2900 0750 R05/P2000 BCFG BKN011/// OVC017/// ///TCU 00/M01 Q1013
LFPT 151800Z AUTO 15009KT 3200 0900 R05/P2000 BCFG OVC011/// ///TCU 01/M01 Q1011
LFPT 151830Z AUTO 14006KT 2200 0650 R05/P2000 BCFG OVC008/// ///TCU 00/M01 Q1011

Airport on the map: